»·PEaware :: UAL241 KPHX-KLAS

UAL241 :: KPHX-KLAS

FLIGHT INFORMATION

Flight Status: Arrived
Operator:
United Airlines
More flights by this operator :: More flights under this callsign
Pilot: Ryan H. (12491)
Aircraft: BOEING 737-800
(B738)
More flights by this aircraft type
Origin: KPHX Phoenix Sky Harbor Intl
United States
Destination: KLAS McCarran Intl
United States
More flights between these airports :: More routes between these airports
Route: +MAYSA5 SISIE IGM TYSSN5
File this flight plan on PilotEdge
Remarks:
Altitude:
(Current/Filed)
260ft
Speed:
(Current/Filed)
450kts
Departed: 27-Sep-17 09:04 PM
Arrived: 27-Sep-17 09:45 PM
Distance/Time
Traveled:
221nm/0:41
Distance/Time
To Go:
Arrived

Flight Plot

Page will automatically refresh every two minutes.

Flight plan parsing failed; only flown route is shown


Map Options




Map Legend


Flown Route
Filed Route
Departure Airport
Arrival Airport
Navaid (VOR, NDB)
Fix

Horizontal Profiles

Position Reports

Time Latitude Longitude Heading Altitude Ground
Speed
27-Sep-17 20:32 33.433422 -112.007965 316 1144ft 0kts
27-Sep-17 20:33 33.433422 -112.007965 316 1144ft 0kts
27-Sep-17 20:34 33.433422 -112.007965 316 1144ft 0kts
27-Sep-17 20:35 33.433422 -112.007965 316 1144ft 0kts
27-Sep-17 20:36 33.433422 -112.007965 316 1144ft 0kts
27-Sep-17 20:37 33.433422 -112.007965 316 1144ft 0kts
27-Sep-17 20:38 33.433422 -112.007965 316 1144ft 0kts
27-Sep-17 20:39 33.433422 -112.007965 316 1144ft 0kts
27-Sep-17 20:40 33.433422 -112.007965 316 1144ft 0kts
27-Sep-17 20:41 33.433422 -112.007965 316 1144ft 0kts
27-Sep-17 20:42 33.433422 -112.007965 316 1144ft 0kts
27-Sep-17 20:43 33.433422 -112.007965 316 1144ft 0kts
27-Sep-17 20:44 33.433422 -112.007965 316 1144ft 0kts
27-Sep-17 20:45 33.433422 -112.007965 316 1144ft 0kts
27-Sep-17 20:46 33.433422 -112.007965 316 1144ft 0kts
27-Sep-17 20:47 33.433422 -112.007965 316 1144ft 0kts
27-Sep-17 20:48 33.433422 -112.007965 316 1144ft 0kts
27-Sep-17 20:49 33.433422 -112.007965 316 1144ft 0kts
27-Sep-17 20:50 33.433422 -112.007965 316 1144ft 0kts
27-Sep-17 20:51 33.433422 -112.007965 316 1144ft 0kts
27-Sep-17 20:52 33.433422 -112.007965 316 1144ft 0kts
27-Sep-17 20:53 33.433422 -112.007965 316 1144ft 0kts
27-Sep-17 20:54 33.433422 -112.007965 316 1144ft 0kts
27-Sep-17 20:55 33.433422 -112.007965 316 1144ft 0kts
27-Sep-17 20:56 33.433422 -112.007965 316 1144ft 0kts
27-Sep-17 20:57 33.433422 -112.007965 316 1144ft 0kts
27-Sep-17 20:58 33.433422 -112.007965 316 1144ft 0kts
27-Sep-17 20:59 33.433422 -112.007965 316 1144ft 0kts
27-Sep-17 21:00 33.433262 -112.007134 198 1144ft 22kts
27-Sep-17 21:01 33.433996 -112.007456 181 1144ft 0kts
27-Sep-17 21:02 33.433935 -112.007458 181 1144ft 5kts
27-Sep-17 21:03 33.432117 -112.005892 89 1144ft 20kts
27-Sep-17 21:04 33.432138 -111.995493 88 1144ft 33kts
27-Sep-17 21:05 33.431933 -111.993569 151 1144ft 0kts
27-Sep-17 21:06 33.431933 -111.993569 151 1144ft 0kts
27-Sep-17 21:07 33.431329 -111.993504 184 1144ft 10kts
27-Sep-17 21:08 33.431076 -112.024727 270 1721ft 200kts
27-Sep-17 21:09 33.449337 -112.094081 314 6158ft 249kts
27-Sep-17 21:10 33.508214 -112.151352 319 10582ft 291kts
27-Sep-17 21:11 33.584996 -112.199924 345 13936ft 344kts
27-Sep-17 21:12 33.684788 -112.230022 343 17151ft 385kts
27-Sep-17 21:13 33.791162 -112.262521 342 20429ft 404kts
27-Sep-17 21:14 33.902635 -112.296393 341 23356ft 415kts
27-Sep-17 21:15 34.013935 -112.331090 333 25857ft 414kts
27-Sep-17 21:16 34.108287 -112.415645 314 26052ft 447kts
27-Sep-17 21:17 34.206061 -112.514701 315 26076ft 461kts
27-Sep-17 21:18 34.303110 -112.615776 309 26107ft 458kts
27-Sep-17 21:19 34.384374 -112.733369 309 26136ft 457kts
27-Sep-17 21:20 34.469335 -112.848213 308 26141ft 456kts
27-Sep-17 21:21 34.553433 -112.963236 309 26138ft 456kts
27-Sep-17 21:22 34.637578 -113.078206 309 26115ft 456kts
27-Sep-17 21:23 34.721817 -113.193510 310 26140ft 455kts
27-Sep-17 21:24 34.805788 -113.308571 310 26126ft 456kts
27-Sep-17 21:25 34.889995 -113.424104 310 26112ft 454kts
27-Sep-17 21:26 34.973799 -113.539221 310 26103ft 455kts
27-Sep-17 21:27 35.057678 -113.654582 311 26101ft 455kts
27-Sep-17 21:28 35.141837 -113.770456 311 26084ft 453kts
27-Sep-17 21:29 35.222315 -113.881397 312 24173ft 420kts
27-Sep-17 21:30 35.305300 -113.977789 325 21973ft 407kts
27-Sep-17 21:31 35.394947 -114.059055 323 19887ft 394kts
27-Sep-17 21:32 35.481144 -114.139337 323 17790ft 384kts
27-Sep-17 21:33 35.565007 -114.217792 323 15806ft 370kts
27-Sep-17 21:34 35.640775 -114.288618 323 14027ft 318kts
27-Sep-17 21:35 35.710439 -114.353744 323 12676ft 306kts
27-Sep-17 21:36 35.782036 -114.402080 340 11755ft 288kts
27-Sep-17 21:37 35.857274 -114.437310 339 11212ft 288kts
27-Sep-17 21:38 35.931816 -114.472226 340 10694ft 285kts
27-Sep-17 21:39 36.003016 -114.505622 340 10325ft 245kts
27-Sep-17 21:40 36.044564 -114.561194 283 10016ft 248kts
27-Sep-17 21:41 36.058852 -114.644974 283 8825ft 246kts
27-Sep-17 21:42 36.071611 -114.727090 275 8188ft 241kts
27-Sep-17 21:43 36.073665 -114.809598 271 7154ft 232kts
27-Sep-17 21:44 36.073821 -114.883407 271 6051ft 205kts
27-Sep-17 21:45 36.073807 -114.952986 270 4969ft 199kts
27-Sep-17 21:46 36.073752 -115.019863 270 3921ft 176kts
27-Sep-17 21:47 36.073718 -115.074121 270 3057ft 152kts
27-Sep-17 21:48 36.073664 -115.125866 270 2227ft 144kts
27-Sep-17 21:49 36.074510 -115.150098 298 2190ft 22kts
27-Sep-17 21:50 36.075333 -115.151281 326 2190ft 0kts
27-Sep-17 21:51 36.075333 -115.151281 326 2190ft 0kts
27-Sep-17 21:52 36.077023 -115.152352 332 2190ft 18kts
27-Sep-17 21:53 36.077815 -115.147804 94 2190ft 26kts
27-Sep-17 21:54 36.077537 -115.141533 89 2190ft 18kts
27-Sep-17 21:55 36.079755 -115.137715 7 2190ft 9kts
27-Sep-17 21:56 36.080709 -115.138426 314 2190ft 6kts
27-Sep-17 21:57 36.080768 -115.138500 314 2190ft 0kts

Navigation Log

Ident Type
Flight plan parsing failed, navigation log unavailable